Nearby METAR Reports

 

KDWH - Houston/Dw Hooks, Texas, USA
Distance from station: WNW 3mi, 6km
Updated: 08/16/2022 3:53pm
Partly cloudy
Partly cloudy
 Wind from varies
Wind: varies 6 mph , 9 km/h
Temperature: 99°F , 37°C
Dew Point: 68°F , 20°C
Humidity: 37%
Barometer: 29.91 inHg , 1012.9 hPa
Clouds: Partly cloudy
Visibility: 10 miles , 16 km
Cloud details: Partly cloudy 7000 ft
2022/08/16 20:53 KDWH 162053Z VRB05KT 10SM SCT070 37/20 A2991 RMK AO2 SLP127 T03720200 58016
KIAH - Houston/Intnl, Texas, USA
Distance from station: ESE 9mi, 14km
Updated: 08/16/2022 4:53pm
Mostly cloudy
Mostly cloudy
 Wind from WSW
Wind: WSW 5 mph , 7 km/h
Temperature: 97°F , 36°C
Dew Point: 68°F , 20°C
Humidity: 39%
Barometer: 29.90 inHg , 1012.5 hPa
Clouds: Mostly cloudy
Visibility: 10 miles , 16 km
Cloud details: Partly cloudy 6500 ft
Partly cloudy 18000 ft
Mostly cloudy 25000 ft
2022/08/16 21:53 KIAH 162153Z 24004KT 10SM SCT065 SCT180 BKN250 36/20 A2990 RMK AO2 SLP122 T03610200
 
KCXO - Conroe, Texas, USA
Distance from station: NNE 21mi, 34km
Updated: 08/16/2022 4:53pm
Clear
Clear
 Wind from SSE
Wind: SSE 7 mph , 11 km/h
Temperature: 97°F , 36°C
Dew Point: 66°F , 19°C
Humidity: 37%
Barometer: 29.90 inHg , 1012.5 hPa
Clouds: Clear
Visibility: 10 miles , 16 km
2022/08/16 21:53 KCXO 162153Z 16006KT 10SM CLR 36/19 A2990 RMK AO2 SLP122 T03560194
KMCJ - Houston/Univ, Texas, USA
Distance from station: SSE 24mi, 39km
Updated: 08/16/2022 4:55pm
Clear
Clear
 Wind from SE
Wind: SE 13 mph , 20 km/h, Gust: 21 mph , 33 km/h
Temperature: 91°F , 33°C
Heat Index: 98°F , 37°C
Dew Point: 72°F , 22°C
Humidity: 52%
Barometer: 29.90 inHg , 1012.5 hPa
Clouds: Clear
Visibility: 10 miles , 16 km
2022/08/16 21:55 KMCJ 162155Z AUTO 14011G18KT 110V230 10SM CLR 33/22 A2990 RMK A01
 
KTME - Houston Exec, Texas, USA
Distance from station: SW 30mi, 48km
Updated: 08/16/2022 4:55pm

 Wind from WSW
Wind: WSW 6 mph , 9 km/h
Temperature: 99°F , 37°C
Dew Point: 66°F , 19°C
Humidity: 35%
Barometer: 29.91 inHg , 1012.9 hPa
Visibility: 9 miles , 14 km
2022/08/16 21:55 KTME 162155Z AUTO 24005KT 9SM 37/19 A2991 RMK AO2
KHOU - Houston/Hobby, Texas, USA
Distance from station: SSE 32mi, 51km
Updated: 08/16/2022 4:53pm
Partly cloudy
Partly cloudy
 Wind from SE
Wind: SE 15 mph , 24 km/h
Temperature: 91°F , 33°C
Heat Index: 100°F , 38°C
Dew Point: 73°F , 23°C
Humidity: 56%
Barometer: 29.91 inHg , 1012.9 hPa
Clouds: Partly cloudy
Visibility: 10 miles , 16 km
Cloud details: Few Clouds 6500 ft
Partly cloudy 25000 ft
2022/08/16 21:53 KHOU 162153Z 13013KT 10SM FEW065 SCT250 33/23 A2991 RMK AO2 LTG DSNT SW SLP132 T03330228
 
KSGR - Houston/Sugar La, Texas, USA
Distance from station: SSW 32mi, 51km
Updated: 08/16/2022 4:53pm
Clear
Clear
 Wind from SSE
Wind: SSE 16 mph , 26 km/h
Temperature: 95°F , 35°C
Heat Index: 105°F , 41°C
Dew Point: 73°F , 23°C
Humidity: 50%
Barometer: 29.90 inHg , 1012.5 hPa
Clouds: Clear
Visibility: 10 miles , 16 km
2022/08/16 21:53 KSGR 162153Z 15014KT 10SM CLR 35/23 A2990 RMK AO2 LTG DSNT S AND SW SLP124 T03500233
K6R3 - Cleveland Muni, Texas, USA
Distance from station: NE 36mi, 58km
Updated: 08/16/2022 4:35pm
Clear
Clear
 Wind from SSE
Wind: SSE 7 mph , 11 km/h, Gust: 17 mph , 28 km/h
Temperature: 99°F , 37°C
Dew Point: 59°F , 15°C
Humidity: 27%
Barometer: 29.92 inHg , 1013.2 hPa
Clouds: Clear
Visibility: 7 miles , 11 km
2022/08/16 21:35 K6R3 162135Z AUTO 16006G15KT 130V200 7SM CLR 37/15 A2992 RMK AO2 T03690147
 
KAXH - Houston/Southwst, Texas, USA
Distance from station: S 37mi, 60km
Updated: 08/16/2022 4:55pm
Clear
Clear
 Wind from SSE
Wind: SSE 9 mph , 15 km/h
Temperature: 95°F , 35°C
Heat Index: 107°F , 42°C
Dew Point: 75°F , 24°C
Humidity: 53%
Barometer: 29.92 inHg , 1013.2 hPa
Clouds: Clear
Visibility: 10 miles , 16 km
2022/08/16 21:55 KAXH 162155Z AUTO 16008KT 10SM CLR 35/24 A2992 RMK AO2 T03450239
KEFD - Houston/Ellingto, Texas, USA
Distance from station: SSE 37mi, 60km
Updated: 08/16/2022 4:54pm
Few Clouds
Few Clouds
 Wind from SE
Wind: SE 7 mph , 11 km/h
Temperature: 88°F , 31°C
Heat Index: 98°F , 37°C
Dew Point: 75°F , 24°C
Humidity: 66%
Barometer: 29.91 inHg , 1012.9 hPa
Clouds: Few Clouds
Visibility: 10 miles , 16 km
Cloud details: Few Clouds 4800 ft
2022/08/16 21:54 KEFD 162154Z 14006KT 10SM FEW048 31/24 A2991
 
KLVJ - Houston, Texas, USA
Distance from station: SSE 40mi, 64km
Updated: 08/16/2022 4:53pm
Clear
Clear
 Wind from S
Wind: S 7 mph , 11 km/h
Temperature: 91°F , 33°C
Heat Index: 100°F , 38°C
Dew Point: 73°F , 23°C
Humidity: 56%
Barometer: 29.93 inHg , 1013.5 hPa
Clouds: Clear
Visibility: 10 miles , 16 km
2022/08/16 21:53 KLVJ 162153Z AUTO 17006KT 10SM CLR 33/23 A2993 RMK AO2 LTG DSNT W TSE2057B16E34 SLP134 T03280228
KUTS - Huntsville, Texas, USA
Distance from station: N 48mi, 78km
Updated: 08/16/2022 4:53pm
Clear
Clear
 Wind from varies
Wind: varies 3 mph , 6 km/h
Temperature: 99°F , 37°C
Dew Point: 64°F , 18°C
Humidity: 33%
Barometer: 29.90 inHg , 1012.5 hPa
Clouds: Clear
Visibility: 10 miles , 16 km
2022/08/16 21:53 KUTS 162153Z AUTO VRB03KT 10SM CLR 37/18 A2990 RMK AO2 SLP117 T03720183